Latest Weather Observations for North Head

IDN60901

Issued at 9:31 pm EST Thursday 22 August 2019 (issued every 10 minutes, with the page automatically refreshed every 10 minutes)

About weather observations | Map of Sydney area stations | Latest observations for Sydney area | Other Formats
Station Details ID: 066197 Name: NORTH HEAD Lat: -33.82 Lon: 151.30 Height: 90.0 m
Data from the previous 72 hours. | See also: Recent months at North Head
Date/Time
EST
Temp
°C
App
Temp
°C
Dew
Point
°C
Rel
Hum
%
Delta-T
°C
Wind Press
QNH
hPa
Press
MSL
hPa
Rain since
9am
mm
Dir  Spd
km/h
Gust
km/h
Spd
kts
Gust
kts
22/09:30pm - - - - - S 28 44 15 24 - - -
22/09:00pm - - - - - S 28 48 15 26 - - -
22/08:30pm - - - - - S 30 52 16 28 - - -
22/08:00pm - - - - - S 30 50 16 27 - - -
22/07:30pm - - - - - S 28 54 15 29 - - -
22/07:00pm - - - - - S 37 65 20 35 - - -
22/06:30pm - - - - - S 37 59 20 32 - - -
22/06:00pm - - - - - S 35 61 19 33 - - -
22/05:30pm - - - - - S 35 59 19 32 - - -
22/05:00pm - - - - - S 43 63 23 34 - - -
22/04:30pm - - - - - S 43 67 23 36 - - -
22/04:00pm - - - - - S 44 67 24 36 - - -
22/03:30pm - - - - - S 44 70 24 38 - - -
22/03:00pm - - - - - S 37 65 20 35 - - -
22/02:30pm - - - - - S 39 63 21 34 - - -
22/02:00pm - - - - - S 37 57 20 31 - - -
22/01:30pm - - - - - S 33 56 18 30 - - -
22/01:00pm - - - - - S 37 59 20 32 - - -
22/12:31pm - - - - - S 33 54 18 29 - - -
22/12:30pm - - - - - S 33 50 18 27 - - -
22/12:01pm - - - - - S 37 57 20 31 - - -
22/12:00pm - - - - - S 39 57 21 31 - - -
22/11:30am - - - - - S 35 59 19 32 - - -
22/11:28am - - - - - S 33 56 18 30 - - -
22/11:00am - - - - - WSW 28 39 15 21 - - -
22/10:30am - - - - - WSW 28 50 15 27 - - -
22/10:05am - - - - - W 28 48 15 26 - - -
22/10:00am - - - - - W 24 41 13 22 - - -
22/09:32am - - - - - W 33 52 18 28 - - -
22/09:30am - - - - - W 33 48 18 26 - - -
22/09:00am - - - - - W 35 61 19 33 - - -
22/08:37am - - - - - W 30 50 16 27 - - -
22/08:30am - - - - - W 28 39 15 21 - - -
22/08:02am - - - - - W 28 50 15 27 - - -
22/08:00am - - - - - W 26 50 14 27 - - -
22/07:30am - - - - - W 24 43 13 23 - - -
22/07:00am - - - - - W 26 37 14 20 - - -
22/06:30am - - - - - WNW 9 15 5 8 - - -
22/06:00am - - - - - NW 7 9 4 5 - - -
22/05:30am - - - - - NW 9 11 5 6 - - -
22/05:00am - - - - - WNW 9 11 5 6 - - -
22/04:30am - - - - - W 7 9 4 5 - - -
22/04:00am - - - - - WNW 11 15 6 8 - - -
22/03:30am - - - - - WNW 6 6 3 3 - - -
22/03:00am - - - - - NW 7 13 4 7 - - -
22/02:30am - - - - - NW 13 20 7 11 - - -
22/02:00am - - - - - NW 11 17 6 9 - - -
22/01:30am - - - - - NW 11 19 6 10 - - -
22/01:00am - - - - - NW 11 13 6 7 - - -
22/12:30am - - - - - NW 11 17 6 9 - - -
22/12:00am - - - - - W 22 39 12 21 - - -
 
Date/Time
EST
Temp
°C
App
Temp
°C
Dew
Point
°C
Rel
Hum
%
Delta-T
°C
Wind Press
QNH
hPa
Press
MSL
hPa
Rain since
9am
mm
Dir  Spd
km/h
Gust
km/h
Spd
kts
Gust
kts
21/11:30pm - - - - - W 28 43 15 23 - - -
21/11:00pm - - - - - W 26 43 14 23 - - -
21/10:30pm - - - - - W 26 39 14 21 - - -
21/10:04pm - - - - - W 30 50 16 27 - - -
21/10:00pm - - - - - W 30 43 16 23 - - -
21/09:30pm - - - - - W 30 50 16 27 - - -
21/09:00pm - - - - - W 33 57 18 31 - - -
21/08:36pm - - - - - W 28 46 15 25 - - -
21/08:30pm - - - - - W 30 44 16 24 - - -
21/08:18pm - - - - - W 30 48 16 26 - - -
21/08:00pm - - - - - W 28 41 15 22 - - -
21/07:30pm - - - - - W 24 37 13 20 - - -
21/07:00pm - - - - - W 19 28 10 15 - - -
21/06:30pm - - - - - W 24 35 13 19 - - -
21/06:01pm - - - - - W 30 50 16 27 - - -
21/06:00pm - - - - - W 30 44 16 24 - - -
21/05:30pm - - - - - W 32 52 17 28 - - -
21/05:00pm - - - - - W 28 50 15 27 - - -
21/04:38pm - - - - - W 30 52 16 28 - - -
21/04:30pm - - - - - W 28 43 15 23 - - -
21/04:00pm - - - - - W 28 43 15 23 - - -
21/03:30pm - - - - - W 28 43 15 23 - - -
21/03:00pm - - - - - W 24 39 13 21 - - -
21/02:30pm - - - - - W 30 48 16 26 - - -
21/02:00pm - - - - - W 32 50 17 27 - - -
21/01:58pm - - - - - W 30 50 16 27 - - -
21/01:30pm - - - - - WSW 22 39 12 21 - - -
21/01:00pm - - - - - WNW 19 32 10 17 - - -
21/12:30pm - - - - - WNW 17 30 9 16 - - -
21/12:00pm - - - - - W 19 30 10 16 - - -
21/11:30am - - - - - WNW 15 24 8 13 - - -
21/11:00am - - - - - W 15 22 8 12 - - -
21/10:30am - - - - - WNW 11 19 6 10 - - -
21/10:00am - - - - - NW 15 24 8 13 - - -
21/09:30am - - - - - NW 13 22 7 12 - - -
21/09:00am - - - - - WNW 19 32 10 17 - - -
21/08:30am - - - - - WNW 22 33 12 18 - - -
21/08:00am - - - - - WNW 22 33 12 18 - - -
21/07:30am - - - - - WNW 20 35 11 19 - - -
21/07:00am - - - - - WNW 19 32 10 17 - - -
21/06:30am - - - - - W 11 17 6 9 - - -
21/06:00am - - - - - NW 17 26 9 14 - - -
21/05:30am - - - - - NW 11 20 6 11 - - -
21/05:00am - - - - - NW 11 13 6 7 - - -
21/04:30am - - - - - NW 11 17 6 9 - - -
21/04:00am - - - - - NW 9 13 5 7 - - -
21/03:30am - - - - - NNW 9 13 5 7 - - -
21/03:00am - - - - - NW 7 11 4 6 - - -
21/02:30am - - - - - NW 9 13 5 7 - - -
21/02:00am - - - - - NW 7 11 4 6 - - -
21/01:30am - - - - - NW 9 15 5 8 - - -
21/01:00am - - - - - NW 7 9 4 5 - - -
21/12:30am - - - - - WNW 13 19 7 10 - - -
21/12:00am - - - - - WNW 15 19 8 10 - - -
 
Date/Time
EST
Temp
°C
App
Temp
°C
Dew
Point
°C
Rel
Hum
%
Delta-T
°C
Wind Press
QNH
hPa
Press
MSL
hPa
Rain since
9am
mm
Dir  Spd
km/h
Gust
km/h
Spd
kts
Gust
kts
20/11:30pm - - - - - WNW 11 19 6 10 - - -
20/11:00pm - - - - - NW 11 13 6 7 - - -
20/10:30pm - - - - - WNW 17 24 9 13 - - -
20/10:00pm - - - - - WNW 17 24 9 13 - - -
20/09:30pm - - - - - W 17 24 9 13 - - -
20/09:00pm - - - - - W 19 26 10 14 - - -
20/08:30pm - - - - - WNW 19 28 10 15 - - -
20/08:00pm - - - - - W 19 30 10 16 - - -
20/07:30pm - - - - - W 24 43 13 23 - - -
20/07:18pm - - - - - W 28 52 15 28 - - -
20/07:00pm - - - - - W 26 41 14 22 - - -
20/06:32pm - - - - - W 28 50 15 27 - - -
20/06:30pm - - - - - W 28 41 15 22 - - -
20/06:00pm - - - - - W 22 37 12 20 - - -
20/05:30pm - - - - - W 22 39 12 21 - - -
20/05:00pm - - - - - W 22 39 12 21 - - -
20/04:30pm - - - - - W 26 44 14 24 - - -
20/04:00pm - - - - - WSW 22 37 12 20 - - -
20/03:30pm - - - - - WSW 24 35 13 19 - - -
20/03:00pm - - - - - WSW 22 41 12 22 - - -
20/02:30pm - - - - - WSW 19 30 10 16 - - -
20/02:00pm - - - - - WSW 17 24 9 13 - - -
20/01:30pm - - - - - W 17 30 9 16 - - -
20/01:00pm - - - - - W 17 24 9 13 - - -
20/12:30pm - - - - - W 15 24 8 13 - - -
20/12:00pm - - - - - W 20 30 11 16 - - -
20/11:30am - - - - - WNW 22 35 12 19 - - -
20/11:00am - - - - - WNW 26 37 14 20 - - -
20/10:30am - - - - - WNW 24 35 13 19 - - -
20/10:00am - - - - - W 22 37 12 20 - - -
20/09:30am - - - - - W 24 44 13 24 - - -
20/09:00am - - - - - W 24 35 13 19 - - -
20/08:30am - - - - - W 22 35 12 19 - - -
20/08:00am - - - - - W 24 39 13 21 - - -
20/07:30am - - - - - W 22 35 12 19 - - -
20/07:00am - - - - - W 22 35 12 19 - - -
20/06:30am - - - - - W 19 28 10 15 - - -
20/06:00am - - - - - W 20 28 11 15 - - -
20/05:30am - - - - - W 19 32 10 17 - - -
20/05:00am - - - - - W 19 30 10 16 - - -
20/04:30am - - - - - W 20 32 11 17 - - -
20/04:00am - - - - - W 26 41 14 22 - - -
20/03:30am - - - - - W 22 33 12 18 - - -
20/03:00am - - - - - W 22 32 12 17 - - -
20/02:30am - - - - - W 22 30 12 16 - - -
20/02:00am - - - - - W 22 33 12 18 - - -
20/01:30am - - - - - W 26 37 14 20 - - -
20/01:00am - - - - - W 22 35 12 19 - - -
20/12:30am - - - - - W 22 37 12 20 - - -
20/12:00am - - - - - W 26 41 14 22 - - -
 
Date/Time
EST
Temp
°C
App
Temp
°C
Dew
Point
°C
Rel
Hum
%
Delta-T
°C
Wind Press
QNH
hPa
Press
MSL
hPa
Rain since
9am
mm
Dir  Spd
km/h
Gust
km/h
Spd
kts
Gust
kts
19/11:30pm - - - - - W 24 35 13 19 - - -
19/11:00pm - - - - - W 28 46 15 25 - - -
19/10:52pm - - - - - W 28 48 15 26 - - -
19/10:30pm - - - - - W 28 41 15 22 - - -
19/10:00pm - - - - - W 26 44 14 24 - - -

Latest Capital City Observations: Canberra | Sydney | Melbourne | Brisbane | Adelaide | Perth | Hobart | Darwin

Other formats

Comma delimited format used in spreadsheet applications
http://www.bom.gov.au/fwo/IDN60901/IDN60901.95768.axf

JavaScript Object Notation format (JSON) in row-major order
http://www.bom.gov.au/fwo/IDN60901/IDN60901.95768.json

Data quality

Most of these data are generated automatically and are frequently updated. Quality checks on data are not normally performed. It is possible for incorrect values to appear. Refer to information at About Latest Weather Observations and please check the disclaimer before using these data.